createdAt,value
2019-01-16T00:01:07.496Z,97624.02
2019-01-16T00:03:43.071Z,97623.06
2019-01-16T00:06:13.077Z,97611.87
2019-01-16T00:08:51.551Z,97608.13
2019-01-16T00:11:23.999Z,97614.36
2019-01-16T00:13:54.011Z,97609.88
2019-01-16T00:16:23.979Z,97605.11
2019-01-16T00:18:59.796Z,97605.26
2019-01-16T00:21:29.790Z,97611.12
2019-01-16T00:24:13.277Z,97608.48
2019-01-16T00:26:54.585Z,97612.30
2019-01-16T00:29:33.589Z,97611.41
2019-01-16T00:32:09.482Z,97607.83
2019-01-16T00:34:42.232Z,97601.25
2019-01-16T00:37:18.296Z,96958.61
2019-01-16T00:40:00.219Z,97602.70
2019-01-16T00:42:30.115Z,97593.91
2019-01-16T00:45:16.110Z,97592.67
2019-01-16T00:48:02.528Z,97593.06
2019-01-16T00:50:41.059Z,97591.53
2019-01-16T00:53:16.647Z,97590.84
2019-01-16T00:55:58.299Z,97590.70
2019-01-16T00:58:40.400Z,97589.46
2019-01-16T01:01:13.300Z,97592.75
2019-01-16T01:03:51.917Z,97596.88
2019-01-16T01:06:21.864Z,97591.16
2019-01-16T01:08:57.280Z,97594.39
2019-01-16T01:11:27.279Z,97590.13
2019-01-16T01:14:13.222Z,97590.87
2019-01-16T01:16:58.387Z,97590.36
2019-01-16T01:19:34.058Z,97585.68
2019-01-16T01:22:20.475Z,97585.89
2019-01-16T01:24:50.504Z,97583.11
2019-01-16T01:27:23.370Z,97576.66
2019-01-16T01:29:58.256Z,97580.64
2019-01-16T01:32:44.113Z,97576.77
2019-01-16T01:35:16.541Z,97577.72
2019-01-16T01:37:49.214Z,97587.88
2019-01-16T01:40:31.109Z,97587.66
2019-01-16T01:43:06.898Z,97583.25
2019-01-16T01:45:39.463Z,97584.88
2019-01-16T01:48:18.047Z,97582.75
2019-01-16T01:50:53.442Z,97580.77
2019-01-16T01:53:23.385Z,97586.98
2019-01-16T01:56:09.603Z,97580.55
2019-01-16T01:58:42.361Z,97578.52
2019-01-16T02:01:28.659Z,97571.20
2019-01-16T02:04:14.628Z,97579.02
2019-01-16T02:06:56.580Z,97572.59
2019-01-16T02:09:26.522Z,97581.16
2019-01-16T02:11:59.083Z,97571.91
2019-01-16T02:14:41.199Z,97573.55
2019-01-16T02:17:11.127Z,97573.75
2019-01-16T02:19:44.010Z,97571.41
2019-01-16T02:22:29.992Z,97564.31
2019-01-16T02:25:03.017Z,97569.67
2019-01-16T02:27:32.910Z,97011.03
2019-01-16T02:30:15.072Z,97563.02
2019-01-16T02:32:49.270Z,97563.37
2019-01-16T02:35:37.339Z,97555.77
2019-01-16T02:38:15.795Z,97563.58
2019-01-16T02:40:48.212Z,97553.78
2019-01-16T02:43:20.637Z,97558.25
2019-01-16T02:45:53.761Z,97551.95
2019-01-16T02:48:23.790Z,97544.34
2019-01-16T02:51:09.796Z,97539.23
2019-01-16T02:53:52.088Z,97541.95
2019-01-16T02:56:30.500Z,97537.48
2019-01-16T02:59:00.398Z,97536.59
2019-01-16T03:01:34.740Z,97534.50
2019-01-16T03:04:05.123Z,97186.99
2019-01-16T03:06:52.128Z,97533.81
2019-01-16T03:09:38.094Z,97537.19
2019-01-16T03:12:20.271Z,97533.25
2019-01-16T03:14:52.880Z,97528.55
2019-01-16T03:17:28.655Z,97537.55
2019-01-16T03:19:58.675Z,97532.72
2019-01-16T03:22:28.617Z,97526.22
2019-01-16T03:25:07.263Z,97527.60
2019-01-16T03:27:37.153Z,97519.85
2019-01-16T03:30:26.960Z,97526.30
2019-01-16T03:32:56.919Z,97519.56
2019-01-16T03:35:42.243Z,97513.86
2019-01-16T03:38:12.128Z,97514.09
2019-01-16T03:40:58.018Z,97514.95
2019-01-16T03:43:36.646Z,97502.38
2019-01-16T03:46:06.541Z,97505.25
2019-01-16T03:48:36.502Z,97503.48
2019-01-16T03:51:06.392Z,97503.63
2019-01-16T03:53:52.691Z,97495.38
2019-01-16T03:56:25.206Z,97500.70
2019-01-16T03:59:03.747Z,97498.66
2019-01-16T04:01:39.194Z,97489.52
2019-01-16T04:04:09.296Z,97489.73
2019-01-16T04:06:55.576Z,97491.47
2019-01-16T04:09:41.738Z,97487.45
2019-01-16T04:12:14.565Z,97478.84
2019-01-16T04:14:50.338Z,97479.05
2019-01-16T04:17:29.053Z,97478.02
2019-01-16T04:20:04.759Z,97481.39
2019-01-16T04:22:34.646Z,97479.05
2019-01-16T04:25:19.847Z,97483.52
2019-01-16T04:27:50.023Z,97486.95
2019-01-16T04:30:28.918Z,97484.67
2019-01-16T04:33:01.777Z,97489.50
2019-01-16T04:35:31.667Z,97483.08
2019-01-16T04:38:02.020Z,97482.34
2019-01-16T04:40:48.512Z,97480.95
2019-01-16T04:43:21.392Z,97475.77
2019-01-16T04:46:00.860Z,97477.16
2019-01-16T04:48:35.470Z,97473.14
2019-01-16T04:51:09.857Z,97476.63
2019-01-16T04:53:42.403Z,97472.91
2019-01-16T04:56:28.415Z,97473.30
2019-01-16T04:59:01.257Z,97472.11
2019-01-16T05:01:35.749Z,97474.50
2019-01-16T05:04:23.804Z,97476.48
2019-01-16T05:07:10.061Z,97473.70
2019-01-16T05:09:56.000Z,97471.08
2019-01-16T05:12:29.526Z,97466.96
2019-01-16T05:15:05.021Z,97467.49
2019-01-16T05:17:51.278Z,97461.94
2019-01-16T05:20:23.858Z,97462.53
2019-01-16T05:23:04.484Z,97464.33
2019-01-16T05:25:50.644Z,97469.53
2019-01-16T05:28:37.330Z,97462.79
2019-01-16T05:31:13.130Z,97468.55
2019-01-16T05:33:43.351Z,97473.75
2019-01-16T05:36:22.658Z,97468.64
2019-01-16T05:38:55.672Z,97472.72
2019-01-16T05:41:47.642Z,97468.84
2019-01-16T05:44:17.957Z,97463.67
2019-01-16T05:46:48.303Z,97465.86
2019-01-16T05:49:19.658Z,97464.47
2019-01-16T05:52:07.839Z,97468.55
2019-01-16T05:54:37.969Z,97464.52
2019-01-16T05:57:24.127Z,97467.59
2019-01-16T06:00:10.218Z,97469.54
2019-01-16T06:02:55.464Z,97464.96
2019-01-16T06:05:43.672Z,97459.61
2019-01-16T06:08:19.857Z,97458.06
2019-01-16T06:10:55.663Z,97458.51
2019-01-16T06:13:25.678Z,97457.17
2019-01-16T06:16:13.893Z,97451.05
2019-01-16T06:18:49.332Z,97455.78
2019-01-16T06:21:19.254Z,97459.20
2019-01-16T06:24:05.199Z,97453.89
2019-01-16T06:26:40.878Z,97460.44
2019-01-16T06:29:26.930Z,97451.25
2019-01-16T06:32:11.982Z,97458.40
2019-01-16T06:34:58.282Z,97453.64
2019-01-16T06:37:39.889Z,97454.08
2019-01-16T06:40:26.948Z,97451.23
2019-01-16T06:42:56.830Z,97445.39
2019-01-16T06:45:26.748Z,97449.46
2019-01-16T06:48:05.901Z,97449.11
2019-01-16T06:50:38.552Z,97451.23
2019-01-16T06:53:11.104Z,97442.76
2019-01-16T06:55:49.900Z,97437.34
2019-01-16T06:58:19.812Z,97444.58
2019-01-16T07:01:06.141Z,97448.86
2019-01-16T07:03:36.026Z,97452.12
2019-01-16T07:06:22.090Z,97454.25
2019-01-16T07:08:57.962Z,97450.23
2019-01-16T07:11:27.864Z,97450.97
2019-01-16T07:13:57.838Z,97451.27
2019-01-16T07:16:33.465Z,97454.45
2019-01-16T07:19:18.370Z,97461.39
2019-01-16T07:21:57.052Z,97466.51
2019-01-16T07:24:38.923Z,97460.61
2019-01-16T07:27:08.852Z,97458.28
2019-01-16T07:29:54.951Z,97454.20
2019-01-16T07:32:42.951Z,97460.70
2019-01-16T07:35:24.826Z,97465.88
2019-01-16T07:38:00.393Z,97475.80
2019-01-16T07:40:48.392Z,97458.38
2019-01-16T07:43:21.119Z,97453.66
2019-01-16T07:46:07.181Z,97460.95
2019-01-16T07:48:37.116Z,97459.56
2019-01-16T07:51:23.506Z,97461.84
2019-01-16T07:53:55.999Z,97462.73
2019-01-16T07:56:25.962Z,97460.95
2019-01-16T07:58:59.024Z,97459.65
2019-01-16T08:01:31.771Z,97458.17
2019-01-16T08:04:01.668Z,97453.95
2019-01-16T08:06:34.034Z,97452.89
2019-01-16T08:09:06.843Z,97452.63
2019-01-16T08:11:53.060Z,97451.28
2019-01-16T08:14:25.654Z,97457.48
2019-01-16T08:16:55.545Z,97456.47
2019-01-16T08:19:41.930Z,97462.82
2019-01-16T08:22:20.495Z,97457.91
2019-01-16T08:24:59.290Z,97450.75
2019-01-16T08:27:34.956Z,97451.98
2019-01-16T08:30:13.943Z,97437.81
2019-01-16T08:32:46.643Z,97435.91
2019-01-16T08:35:22.290Z,97440.72
2019-01-16T08:38:08.393Z,97443.70
2019-01-16T08:40:38.280Z,97459.05
2019-01-16T08:43:10.792Z,97443.94
2019-01-16T08:45:46.884Z,97444.56
2019-01-16T08:48:32.836Z,97435.35
2019-01-16T08:51:05.354Z,97438.25
2019-01-16T08:53:51.684Z,97431.13
2019-01-16T08:56:21.561Z,97433.03
2019-01-16T08:59:01.978Z,97430.35
2019-01-16T09:01:48.008Z,97418.58
2019-01-16T09:04:23.850Z,97410.64
2019-01-16T09:07:09.070Z,97410.80
2019-01-16T09:09:41.796Z,97410.02
2019-01-16T09:12:20.959Z,97405.83
2019-01-16T09:15:06.082Z,97406.06
2019-01-16T09:17:42.398Z,97407.71
2019-01-16T09:20:16.109Z,97407.73
2019-01-16T09:22:46.166Z,97406.35
2019-01-16T09:25:34.423Z,97408.65
2019-01-16T09:28:20.321Z,97407.67
2019-01-16T09:31:06.390Z,97413.09
2019-01-16T09:33:52.878Z,97414.58
2019-01-16T09:36:22.847Z,97409.52
2019-01-16T09:38:56.325Z,97412.19
2019-01-16T09:41:26.298Z,97408.77
2019-01-16T09:44:05.395Z,97406.34
2019-01-16T09:46:44.559Z,97393.86
2019-01-16T09:49:23.413Z,97396.94
2019-01-16T09:51:55.832Z,97395.92
2019-01-16T09:54:41.801Z,97393.64
2019-01-16T09:57:27.653Z,97382.69
2019-01-16T10:00:12.496Z,97390.93
2019-01-16T10:02:57.305Z,97387.93
2019-01-16T10:05:36.188Z,97378.67
2019-01-16T10:08:06.110Z,97374.17
2019-01-16T10:10:54.487Z,97365.84
2019-01-16T10:13:24.383Z,97367.52
2019-01-16T10:16:10.134Z,97353.20
2019-01-16T10:18:54.844Z,97356.39
2019-01-16T10:21:27.665Z,97308.58
2019-01-16T10:23:57.594Z,97344.26
2019-01-16T10:26:27.496Z,97338.98
2019-01-16T10:29:13.570Z,97333.25
2019-01-16T10:31:46.405Z,97333.56
2019-01-16T10:34:16.306Z,97337.97
2019-01-16T10:36:48.632Z,97325.76
2019-01-16T10:39:30.305Z,97324.45
2019-01-16T10:42:06.013Z,97312.09
2019-01-16T10:44:38.887Z,97303.52
2019-01-16T10:47:17.553Z,97301.23
2019-01-16T10:49:50.239Z,97292.38
2019-01-16T10:52:36.243Z,97290.63
2019-01-16T10:55:09.339Z,97297.02
2019-01-16T10:57:39.261Z,97288.78
2019-01-16T11:00:18.173Z,97292.63
2019-01-16T11:02:51.044Z,97283.77
2019-01-16T11:05:36.935Z,97270.64
2019-01-16T11:08:09.648Z,97260.62
2019-01-16T11:10:42.321Z,97259.33
2019-01-16T11:13:18.173Z,97256.78
2019-01-16T11:15:48.063Z,97205.36
2019-01-16T11:18:20.628Z,97147.84
2019-01-16T11:20:50.625Z,97243.58
2019-01-16T11:23:20.597Z,97247.56
2019-01-16T11:26:05.516Z,97244.81
2019-01-16T11:28:50.719Z,97232.00
2019-01-16T11:31:36.544Z,97225.01
2019-01-16T11:34:06.516Z,97215.56
2019-01-16T11:36:52.263Z,97218.41
2019-01-16T11:39:27.803Z,97203.73
2019-01-16T11:42:06.674Z,97199.58
2019-01-16T11:44:51.576Z,97192.30
2019-01-16T11:47:33.300Z,97185.09
2019-01-16T11:50:19.156Z,97175.83
2019-01-16T11:53:05.292Z,97173.66
2019-01-16T11:55:52.349Z,97162.23
2019-01-16T11:58:22.245Z,97152.67
2019-01-16T12:00:53.146Z,97152.60
2019-01-16T12:03:26.095Z,97142.30
2019-01-16T12:06:01.982Z,97145.03
2019-01-16T12:08:34.660Z,97144.92
2019-01-16T12:11:07.471Z,97142.49
2019-01-16T12:13:43.143Z,97148.56
2019-01-16T12:16:13.100Z,97137.28
2019-01-16T12:18:49.407Z,97141.00
2019-01-16T12:21:26.153Z,97140.53
2019-01-16T12:23:54.034Z,97136.77
2019-01-16T12:26:23.928Z,97132.88
2019-01-16T12:28:56.957Z,97122.86
2019-01-16T12:31:45.236Z,97124.46
2019-01-16T12:34:17.578Z,97120.78
2019-01-16T12:36:47.581Z,97118.78
2019-01-16T12:39:33.836Z,97114.27
2019-01-16T12:42:12.401Z,97106.59
2019-01-16T12:44:42.363Z,97103.03
2019-01-16T12:47:18.306Z,97100.14
2019-01-16T12:49:53.994Z,97096.45
2019-01-16T12:52:32.902Z,97097.47
2019-01-16T12:55:05.325Z,97088.95
2019-01-16T12:57:38.041Z,97088.67
2019-01-16T13:00:11.211Z,97089.47
2019-01-16T13:02:41.282Z,97083.38
2019-01-16T13:05:17.229Z,97085.72
2019-01-16T13:07:47.206Z,97091.55
2019-01-16T13:10:17.296Z,97077.05
2019-01-16T13:12:47.347Z,97074.73
2019-01-16T13:15:19.977Z,97067.48
2019-01-16T13:17:52.686Z,97059.93
2019-01-16T13:20:28.721Z,97055.45
2019-01-16T13:23:01.283Z,97051.20
2019-01-16T13:25:47.067Z,97043.28
2019-01-16T13:28:32.017Z,97045.75
2019-01-16T13:31:01.952Z,97053.17
2019-01-16T13:33:34.699Z,97042.23
2019-01-16T13:36:23.008Z,97031.90
2019-01-16T13:38:58.569Z,97029.08
2019-01-16T13:41:44.636Z,97030.78
2019-01-16T13:44:26.503Z,97025.58
2019-01-16T13:47:08.405Z,97021.97
2019-01-16T13:49:43.978Z,97025.47
2019-01-16T13:52:19.375Z,97036.30
2019-01-16T13:55:05.125Z,97028.90
2019-01-16T13:57:35.092Z,97025.47
2019-01-16T14:00:06.233Z,97023.01
2019-01-16T14:02:39.431Z,97017.34
2019-01-16T14:05:10.510Z,97011.65
2019-01-16T14:07:56.641Z,97009.58
2019-01-16T14:10:28.192Z,97004.53
2019-01-16T14:13:13.176Z,97007.84
2019-01-16T14:15:59.299Z,97008.41
2019-01-16T14:18:29.266Z,97003.20
2019-01-16T14:21:01.625Z,97002.03
2019-01-16T14:23:31.534Z,96993.71
2019-01-16T14:26:04.319Z,96991.83
2019-01-16T14:28:34.349Z,96988.87
2019-01-16T14:31:10.025Z,96987.39
2019-01-16T14:33:56.038Z,96978.95
2019-01-16T14:36:42.476Z,96973.26
2019-01-16T14:39:12.482Z,96975.89
2019-01-16T14:41:58.485Z,96974.58
2019-01-16T14:44:37.400Z,96978.22
2019-01-16T14:47:16.128Z,96973.04
2019-01-16T14:49:57.696Z,96966.70
2019-01-16T14:52:30.273Z,96962.72
2019-01-16T14:55:05.876Z,96960.34
2019-01-16T14:57:48.279Z,96961.11
2019-01-16T15:00:34.284Z,96958.49
2019-01-16T15:03:04.206Z,96954.64
2019-01-16T15:05:34.072Z,96954.39
2019-01-16T15:08:03.967Z,96955.13
2019-01-16T15:10:36.498Z,96947.41
2019-01-16T15:13:09.159Z,96950.91
2019-01-16T15:15:44.567Z,96950.55
2019-01-16T15:18:28.368Z,96953.92
2019-01-16T15:20:58.358Z,96952.80
2019-01-16T15:23:28.249Z,96947.92
2019-01-16T15:25:58.190Z,96949.78
2019-01-16T15:28:28.076Z,96947.69
2019-01-16T15:31:03.718Z,96947.33
2019-01-16T15:33:45.921Z,96949.11
2019-01-16T15:36:33.565Z,96948.11
2019-01-16T15:39:03.513Z,96941.91
2019-01-16T15:41:36.506Z,96934.47
2019-01-16T15:44:22.180Z,96933.22
2019-01-16T15:46:52.062Z,96926.50
2019-01-16T15:49:22.059Z,96930.20
2019-01-16T15:52:03.908Z,96928.63
2019-01-16T15:54:39.891Z,96922.91
2019-01-16T15:57:09.805Z,96915.30
2019-01-16T15:59:39.691Z,96910.59
2019-01-16T16:02:12.643Z,96911.71
2019-01-16T16:04:42.594Z,96905.96
2019-01-16T16:07:24.467Z,96898.00
2019-01-16T16:10:03.043Z,96895.41
2019-01-16T16:12:35.992Z,96900.62
2019-01-16T16:15:10.877Z,96892.88
2019-01-16T16:17:43.508Z,96883.17
2019-01-16T16:20:29.834Z,96883.16
2019-01-16T16:23:16.207Z,96884.89
2019-01-16T16:25:46.095Z,96880.06
2019-01-16T16:28:24.785Z,96884.41
2019-01-16T16:31:09.739Z,96750.32
2019-01-16T16:33:51.539Z,96884.88
2019-01-16T16:36:33.361Z,96887.09
2019-01-16T16:39:19.207Z,96892.80
2019-01-16T16:42:04.909Z,96888.06
2019-01-16T16:44:37.940Z,96888.03
2019-01-16T16:47:19.768Z,96876.33
2019-01-16T16:49:49.660Z,96876.30
2019-01-16T16:52:37.677Z,96872.94
2019-01-16T16:55:16.297Z,96874.15
2019-01-16T16:57:48.659Z,96876.87
2019-01-16T17:00:30.491Z,96864.80
2019-01-16T17:03:00.389Z,96869.88
2019-01-16T17:05:33.278Z,96872.98
2019-01-16T17:08:03.178Z,96871.93
2019-01-16T17:10:35.805Z,96874.51
2019-01-16T17:13:05.710Z,96872.73
2019-01-16T17:15:38.621Z,96869.63
2019-01-16T17:18:08.522Z,96866.63
2019-01-16T17:20:54.210Z,96866.36
2019-01-16T17:23:42.371Z,96864.09
2019-01-16T17:26:12.289Z,96863.03
2019-01-16T17:28:47.893Z,96863.74
2019-01-16T17:31:17.886Z,96860.37
2019-01-16T17:33:59.765Z,96868.44
2019-01-16T17:36:35.699Z,96867.76
2019-01-16T17:39:12.862Z,96871.34
2019-01-16T17:41:42.789Z,96861.24
2019-01-16T17:44:12.763Z,96856.08
2019-01-16T17:47:01.096Z,96852.78
2019-01-16T17:49:33.577Z,96857.61
2019-01-16T17:52:06.233Z,96854.11
2019-01-16T17:54:42.075Z,96853.70
2019-01-16T17:57:23.913Z,96857.64
2019-01-16T18:00:02.290Z,96852.80
2019-01-16T18:02:37.946Z,96848.01
2019-01-16T18:05:26.239Z,96844.55
2019-01-16T18:07:56.158Z,96845.25
2019-01-16T18:10:26.099Z,96851.16
2019-01-16T18:13:13.931Z,96845.26
2019-01-16T18:15:59.955Z,96848.34
2019-01-16T18:18:46.129Z,96844.70
2019-01-16T18:21:18.906Z,96844.08
2019-01-16T18:23:51.320Z,96836.86
2019-01-16T18:26:21.226Z,96838.70
2019-01-16T18:28:51.138Z,96838.70
2019-01-16T18:31:23.821Z,96828.87
2019-01-16T18:33:59.656Z,96833.05
2019-01-16T18:36:32.466Z,96834.59
2019-01-16T18:39:02.371Z,96827.41
2019-01-16T18:41:35.039Z,96828.37
2019-01-16T18:44:23.192Z,96829.83
2019-01-16T18:47:05.210Z,96826.85
2019-01-16T18:49:35.142Z,96830.92
2019-01-16T18:52:05.048Z,96836.09
2019-01-16T18:54:53.060Z,96842.29
2019-01-16T18:57:22.988Z,96840.77
2019-01-16T18:59:52.886Z,96841.31
2019-01-16T19:02:37.787Z,96835.66
2019-01-16T19:05:12.317Z,96832.82
2019-01-16T19:07:51.229Z,96831.91
2019-01-16T19:10:21.140Z,96827.16
2019-01-16T19:13:07.240Z,96824.69
2019-01-16T19:15:43.000Z,96819.38
2019-01-16T19:18:12.901Z,96819.73
2019-01-16T19:20:45.554Z,96818.50
2019-01-16T19:23:23.963Z,96817.26
2019-01-16T19:25:56.570Z,96811.06
2019-01-16T19:28:26.474Z,96806.47
2019-01-16T19:31:08.286Z,96809.69
2019-01-16T19:33:40.904Z,96806.58
2019-01-16T19:36:13.954Z,96806.65
2019-01-16T19:38:43.858Z,96805.27
2019-01-16T19:41:13.751Z,96807.96
2019-01-16T19:43:59.963Z,96808.84
2019-01-16T19:46:38.608Z,96807.96
2019-01-16T19:49:17.478Z,96799.15
2019-01-16T19:51:50.420Z,96797.42
2019-01-16T19:54:20.311Z,96795.69
2019-01-16T19:57:06.696Z,96798.38
2019-01-16T19:59:39.709Z,96794.17
2019-01-16T20:02:25.561Z,96792.40
2019-01-16T20:04:55.480Z,96786.81
2019-01-16T20:07:28.524Z,96792.36
2019-01-16T20:09:58.417Z,96789.50
2019-01-16T20:12:34.060Z,96780.55
2019-01-16T20:15:06.663Z,96780.41
2019-01-16T20:17:39.300Z,96781.30
2019-01-16T20:20:28.258Z,96782.57
2019-01-16T20:23:11.191Z,96786.28
2019-01-16T20:25:56.987Z,96784.52
2019-01-16T20:28:29.949Z,96786.00
2019-01-16T20:31:08.898Z,96784.48
2019-01-16T20:33:41.540Z,96784.69
2019-01-16T20:36:14.165Z,96794.30
2019-01-16T20:38:44.081Z,96093.98
2019-01-16T20:41:14.023Z,96788.43
2019-01-16T20:43:55.959Z,95947.88
2019-01-16T20:46:31.641Z,96787.13
2019-01-16T20:49:01.628Z,96786.77
2019-01-16T20:51:47.699Z,96775.48
2019-01-16T20:54:26.648Z,96779.91
2019-01-16T20:56:56.614Z,96783.48
2019-01-16T20:59:26.544Z,96781.28
2019-01-16T21:01:59.422Z,96780.79
2019-01-16T21:04:45.297Z,96778.81
2019-01-16T21:07:24.422Z,96769.80
2019-01-16T21:09:54.438Z,96772.48
2019-01-16T21:12:30.065Z,96779.34
2019-01-16T21:14:59.991Z,96778.03
2019-01-16T21:17:35.696Z,96773.00
2019-01-16T21:20:15.451Z,96775.73
2019-01-16T21:22:45.478Z,96771.06
2019-01-16T21:25:31.758Z,96763.64
2019-01-16T21:28:13.475Z,96039.56
2019-01-16T21:30:43.388Z,96766.47
2019-01-16T21:33:16.262Z,96751.41
2019-01-16T21:35:46.158Z,96763.03
2019-01-16T21:38:16.053Z,96763.56
2019-01-16T21:40:51.956Z,96765.09
2019-01-16T21:43:24.529Z,96769.83
2019-01-16T21:46:06.199Z,96759.26
2019-01-16T21:48:52.212Z,96761.09
2019-01-16T21:51:24.804Z,96754.97
2019-01-16T21:53:57.294Z,96755.92
2019-01-16T21:56:27.199Z,96754.26
2019-01-16T21:58:57.120Z,96749.66
2019-01-16T22:01:35.991Z,96748.88
2019-01-16T22:04:21.208Z,96747.95
2019-01-16T22:06:54.528Z,96755.79
2019-01-16T22:09:44.340Z,96754.51
2019-01-16T22:12:14.572Z,96745.48
2019-01-16T22:14:53.897Z,96739.90
2019-01-16T22:17:27.146Z,96737.78
2019-01-16T22:20:12.290Z,96742.58
2019-01-16T22:22:51.027Z,96740.84
2019-01-16T22:25:21.195Z,96737.63
2019-01-16T22:28:09.209Z,96732.75
2019-01-16T22:30:45.180Z,96735.47
2019-01-16T22:33:31.691Z,96734.44
2019-01-16T22:36:01.582Z,96733.20
2019-01-16T22:38:47.903Z,96736.77
2019-01-16T22:41:24.159Z,96729.20
2019-01-16T22:43:54.075Z,96727.33
2019-01-16T22:46:32.803Z,96726.50
2019-01-16T22:49:05.624Z,96720.17
2019-01-16T22:51:35.566Z,96718.30
2019-01-16T22:54:14.533Z,96719.53
2019-01-16T22:56:46.886Z,96713.56
2019-01-16T22:59:16.787Z,96711.89
2019-01-16T23:01:46.677Z,96700.48
2019-01-16T23:04:32.804Z,96696.21
2019-01-16T23:07:02.726Z,96696.71
2019-01-16T23:09:35.151Z,96691.42
2019-01-16T23:12:20.981Z,96689.80
2019-01-16T23:14:56.847Z,96692.13
2019-01-16T23:17:29.415Z,96687.17
2019-01-16T23:20:02.247Z,96688.20
2019-01-16T23:22:48.238Z,96679.20
2019-01-16T23:25:21.128Z,96678.11
2019-01-16T23:27:56.579Z,96671.05
2019-01-16T23:30:26.479Z,96671.55
2019-01-16T23:32:56.381Z,96663.64
2019-01-16T23:35:29.081Z,96662.12
2019-01-16T23:38:08.158Z,96658.62
2019-01-16T23:40:43.967Z,96656.16
2019-01-16T23:43:13.866Z,96658.70
2019-01-16T23:45:49.815Z,96652.82
2019-01-16T23:48:25.284Z,96647.29
2019-01-16T23:50:55.206Z,96646.58
2019-01-16T23:53:37.040Z,96643.88
2019-01-16T23:56:09.388Z,96640.55
2019-01-16T23:58:39.277Z,96635.61
